Fayette, New York
Current Conditions -  °F | °C
As of 7:53 PM on Friday 24 Oct 2014 (Local Time) from KPEO Reporting Station
Clear Clear  
Wind Chill: 51°   Ceiling: Unl
Heat Index: 51°   Visibility: 10mi
Dew Point: 31°   Wind: 7mph
Humidity: 46%   Direction: 250°WSW
Pressure: 29.93"   Gusts: NA
Location:  42.81°N, 76.81°W
Report Text: KPEO 242353Z AUTO 25006KT 10SM CLR 11/M01 A2993 RMK AO2 SLP137 T01061006 10161 20106 53004
Loading
Personal Weather Stations






























Interactive Weather Map
Tropical Storm Tracking
New forecast layout! Learn more

10-Day Weather Forecast

Advertisements
Track Severe Weather on mobile